createdAt,value
2022-08-03T00:02:43.386Z,96734.56
2022-08-03T00:05:40.325Z,96738.06
2022-08-03T00:08:57.507Z,96737.69
2022-08-03T00:11:54.362Z,96730.38
2022-08-03T00:14:51.201Z,96731.13
2022-08-03T00:17:53.691Z,96734.16
2022-08-03T00:20:50.954Z,96730.81
2022-08-03T00:23:52.208Z,96722.81
2022-08-03T00:26:49.683Z,96730.81
2022-08-03T00:29:59.488Z,96730.47
2022-08-03T00:32:57.123Z,96724.88
2022-08-03T00:35:55.279Z,96730.03
2022-08-03T00:38:52.131Z,96726.16
2022-08-03T00:41:49.005Z,96734.31
2022-08-03T00:44:45.953Z,96731.88
2022-08-03T00:47:42.791Z,96730.00
2022-08-03T00:50:42.510Z,96730.78
2022-08-03T00:53:40.356Z,96729.31
2022-08-03T00:56:38.725Z,96731.88
2022-08-03T00:59:56.104Z,96738.06
2022-08-03T01:02:54.393Z,96739.88
2022-08-03T01:06:03.943Z,96736.44
2022-08-03T01:09:19.141Z,96738.97
2022-08-03T01:12:54.271Z,96738.75
2022-08-03T01:16:37.091Z,96743.41
2022-08-03T01:20:02.045Z,96731.63
2022-08-03T01:23:24.404Z,96729.78
2022-08-03T01:27:05.145Z,96730.91
2022-08-03T01:30:06.110Z,96727.63
2022-08-03T01:33:10.795Z,96726.31
2022-08-03T01:36:18.137Z,96734.91
2022-08-03T01:39:17.163Z,96726.72
2022-08-03T01:42:16.913Z,96721.69
2022-08-03T01:45:18.568Z,96717.97
2022-08-03T01:48:17.437Z,96727.47
2022-08-03T01:51:18.224Z,96718.72
2022-08-03T01:54:17.346Z,96718.66
2022-08-03T01:57:15.504Z,96720.22
2022-08-03T02:00:13.944Z,96722.16
2022-08-03T02:03:13.528Z,96718.53
2022-08-03T02:06:56.840Z,96707.56
2022-08-03T02:09:30.979Z,96714.03
2022-08-03T02:12:31.721Z,96714.03
2022-08-03T02:15:30.392Z,96717.97
2022-08-03T02:18:29.570Z,96714.38
2022-08-03T02:21:56.829Z,96717.81
2022-08-03T02:24:49.307Z,96707.19
2022-08-03T02:28:08.693Z,96712.91
2022-08-03T02:31:19.439Z,96710.34
2022-08-03T02:34:16.994Z,96710.13
2022-08-03T02:37:14.948Z,96713.63
2022-08-03T02:40:13.855Z,96706.56
2022-08-03T02:43:16.993Z,96717.22
2022-08-03T02:46:17.802Z,96720.34
2022-08-03T02:49:40.830Z,96707.56
2022-08-03T02:52:37.264Z,96707.06
2022-08-03T02:55:36.228Z,96696.88
2022-08-03T02:58:43.887Z,96698.59
2022-08-03T03:01:40.895Z,96696.72
2022-08-03T03:04:38.606Z,96701.94
2022-08-03T03:07:53.177Z,96703.78
2022-08-03T03:10:53.300Z,96703.06
2022-08-03T03:13:53.976Z,96704.59
2022-08-03T03:16:52.373Z,96704.59
2022-08-03T03:19:55.918Z,96699.19
2022-08-03T03:22:53.771Z,96692.53
2022-08-03T03:25:51.778Z,96701.56
2022-08-03T03:28:49.013Z,96699.88
2022-08-03T03:31:46.224Z,96696.94
2022-08-03T03:34:44.312Z,96702.50
2022-08-03T03:37:41.294Z,96708.22
2022-08-03T03:40:39.195Z,96708.09
2022-08-03T03:43:36.283Z,96704.00
2022-08-03T03:46:33.171Z,96705.88
2022-08-03T03:49:31.505Z,96701.56
2022-08-03T03:52:28.662Z,96705.00
2022-08-03T03:55:25.584Z,96700.25
2022-08-03T03:58:22.470Z,96701.94
2022-08-03T04:01:22.158Z,96705.19
2022-08-03T04:04:37.251Z,96702.66
2022-08-03T04:08:21.802Z,96706.81
2022-08-03T04:11:29.378Z,96704.25
2022-08-03T04:14:35.051Z,96709.19
2022-08-03T04:17:33.081Z,96716.75
2022-08-03T04:20:35.272Z,96708.81
2022-08-03T04:23:36.104Z,96714.72
2022-08-03T04:26:39.225Z,96713.56
2022-08-03T04:29:48.391Z,96702.13
2022-08-03T04:32:51.745Z,96709.63
2022-08-03T04:36:01.956Z,96708.31
2022-08-03T04:39:14.373Z,96706.34
2022-08-03T04:42:13.958Z,96704.28
2022-08-03T04:45:16.183Z,96702.59
2022-08-03T04:48:15.321Z,96706.28
2022-08-03T04:51:13.220Z,96712.69
2022-08-03T04:54:13.805Z,96706.63
2022-08-03T04:57:23.192Z,96712.00
2022-08-03T05:00:21.219Z,96707.00
2022-08-03T05:03:23.629Z,96716.94
2022-08-03T05:06:21.556Z,96706.25
2022-08-03T05:09:49.743Z,96710.38
2022-08-03T05:12:39.365Z,96710.97
2022-08-03T05:15:36.237Z,96718.41
2022-08-03T05:18:41.971Z,96715.56
2022-08-03T05:21:51.838Z,96709.69
2022-08-03T05:24:49.952Z,96705.56
2022-08-03T05:27:46.837Z,96698.38
2022-08-03T05:30:43.687Z,96710.31
2022-08-03T05:33:40.981Z,96715.53
2022-08-03T05:36:37.842Z,96709.34
2022-08-03T05:39:34.889Z,96706.31
2022-08-03T05:42:31.818Z,96710.88
2022-08-03T05:45:28.865Z,96711.72
2022-08-03T05:48:25.756Z,96707.41
2022-08-03T05:51:22.741Z,96705.13
2022-08-03T05:54:19.569Z,96699.63
2022-08-03T05:57:16.416Z,96708.06
2022-08-03T06:00:13.825Z,96714.63
2022-08-03T06:03:12.550Z,96708.56
2022-08-03T06:06:09.555Z,96703.13
2022-08-03T06:09:06.439Z,96712.50
2022-08-03T06:12:03.456Z,96709.69
2022-08-03T06:15:00.280Z,96706.06
2022-08-03T06:18:01.479Z,96705.25
2022-08-03T06:20:58.869Z,96705.34
2022-08-03T06:24:11.933Z,96705.56
2022-08-03T06:27:08.987Z,96706.34
2022-08-03T06:30:08.407Z,96697.44
2022-08-03T06:33:05.259Z,96701.50
2022-08-03T06:36:05.836Z,96699.38
2022-08-03T06:39:03.672Z,96692.47
2022-08-03T06:42:00.546Z,96698.31
2022-08-03T06:44:57.494Z,96690.91
2022-08-03T06:48:10.837Z,96698.53
2022-08-03T06:51:07.735Z,96699.69
2022-08-03T06:54:04.840Z,96702.34
2022-08-03T06:57:01.802Z,96698.78
2022-08-03T07:00:10.769Z,96699.91
2022-08-03T07:03:08.910Z,96703.41
2022-08-03T07:06:06.007Z,96697.97
2022-08-03T07:09:03.049Z,96694.09
2022-08-03T07:12:02.285Z,96701.75
2022-08-03T07:15:02.557Z,96695.16
2022-08-03T07:17:59.631Z,96688.59
2022-08-03T07:20:57.146Z,96686.25
2022-08-03T07:23:54.226Z,96685.81
2022-08-03T07:26:51.065Z,96693.25
2022-08-03T07:29:47.898Z,96681.53
2022-08-03T07:32:49.891Z,96680.44
2022-08-03T07:35:47.379Z,96682.88
2022-08-03T07:38:44.225Z,96674.75
2022-08-03T07:41:41.386Z,96679.00
2022-08-03T07:44:39.438Z,96680.78
2022-08-03T07:47:36.318Z,96674.09
2022-08-03T07:50:33.171Z,96672.84
2022-08-03T07:53:29.998Z,96671.53
2022-08-03T07:56:27.318Z,96674.06
2022-08-03T07:59:24.166Z,96669.97
2022-08-03T08:02:21.176Z,96675.09
2022-08-03T08:05:18.614Z,96668.31
2022-08-03T08:08:15.668Z,96669.03
2022-08-03T08:11:12.565Z,96664.03
2022-08-03T08:14:09.819Z,96668.94
2022-08-03T08:17:07.498Z,96665.72
2022-08-03T08:20:05.231Z,96668.44
2022-08-03T08:23:27.599Z,96667.84
2022-08-03T08:26:25.353Z,96662.72
2022-08-03T08:29:23.261Z,96669.78
2022-08-03T08:32:20.119Z,96658.00
2022-08-03T08:35:18.221Z,96659.03
2022-08-03T08:38:15.080Z,96665.03
2022-08-03T08:41:14.264Z,96669.69
2022-08-03T08:44:11.195Z,96651.31
2022-08-03T08:47:09.287Z,96657.16
2022-08-03T08:50:18.876Z,96661.91
2022-08-03T08:53:30.195Z,96659.53
2022-08-03T08:56:28.086Z,96653.88
2022-08-03T08:59:25.845Z,96656.31
2022-08-03T09:02:24.464Z,96665.09
2022-08-03T09:05:35.753Z,96655.53
2022-08-03T09:08:38.650Z,96657.69
2022-08-03T09:11:53.419Z,96654.91
2022-08-03T09:15:14.860Z,96652.22
2022-08-03T09:18:10.342Z,96646.47
2022-08-03T09:21:34.862Z,96642.09
2022-08-03T09:24:41.199Z,96642.63
2022-08-03T09:27:46.602Z,96643.31
2022-08-03T09:30:58.139Z,96650.19
2022-08-03T09:33:59.760Z,96642.28
2022-08-03T09:36:58.411Z,96638.03
2022-08-03T09:39:56.053Z,96639.84
2022-08-03T09:42:58.955Z,96638.47
2022-08-03T09:46:07.290Z,96627.06
2022-08-03T09:49:12.540Z,96622.94
2022-08-03T09:52:38.613Z,96630.84
2022-08-03T09:56:34.812Z,96625.28
2022-08-03T09:58:52.990Z,96630.63
2022-08-03T10:01:49.860Z,96621.16
2022-08-03T10:04:53.025Z,96626.75
2022-08-03T10:07:50.528Z,96623.16
2022-08-03T10:10:50.837Z,96625.34
2022-08-03T10:13:47.690Z,96621.00
2022-08-03T10:16:46.762Z,96616.59
2022-08-03T10:19:43.728Z,96620.63
2022-08-03T10:22:42.254Z,96609.00
2022-08-03T10:25:41.306Z,96601.31
2022-08-03T10:28:47.322Z,96609.44
2022-08-03T10:31:57.391Z,96603.59
2022-08-03T10:35:20.095Z,96606.41
2022-08-03T10:38:23.643Z,96608.16
2022-08-03T10:41:23.257Z,96606.34
2022-08-03T10:44:24.289Z,96606.81
2022-08-03T10:47:21.696Z,96607.28
2022-08-03T10:50:20.015Z,96595.88
2022-08-03T10:53:33.547Z,96591.31
2022-08-03T10:56:52.716Z,96589.34
2022-08-03T10:59:50.590Z,96590.38
2022-08-03T11:03:14.546Z,96588.19
2022-08-03T11:06:20.260Z,96589.13
2022-08-03T11:09:18.775Z,96587.59
2022-08-03T11:12:32.260Z,96578.97
2022-08-03T11:15:34.920Z,96579.41
2022-08-03T11:18:31.953Z,96582.88
2022-08-03T11:21:50.349Z,96579.41
2022-08-03T11:24:51.058Z,96581.44
2022-08-03T11:27:47.924Z,96575.16
2022-08-03T11:30:44.866Z,96570.50
2022-08-03T11:33:41.944Z,96574.88
2022-08-03T11:37:24.577Z,96566.31
2022-08-03T11:41:02.685Z,96566.66
2022-08-03T11:43:59.581Z,96573.06
2022-08-03T11:46:58.489Z,96565.41
2022-08-03T11:49:59.187Z,96564.78
2022-08-03T11:52:56.532Z,96558.34
2022-08-03T11:55:53.965Z,96562.28
2022-08-03T11:59:16.632Z,96557.75
2022-08-03T12:02:16.571Z,96558.41
2022-08-03T12:05:13.487Z,96549.97
2022-08-03T12:08:12.644Z,96548.22
2022-08-03T12:11:13.126Z,96539.91
2022-08-03T12:14:49.949Z,96543.16
2022-08-03T12:17:41.126Z,96554.44
2022-08-03T12:20:38.142Z,96533.16
2022-08-03T12:23:38.012Z,96528.53
2022-08-03T12:26:58.503Z,96530.59
2022-08-03T12:29:59.457Z,96530.53
2022-08-03T12:32:56.889Z,96532.19
2022-08-03T12:36:06.757Z,96532.66
2022-08-03T12:39:07.926Z,96527.81
2022-08-03T12:42:04.955Z,96527.50
2022-08-03T12:45:29.214Z,96514.31
2022-08-03T12:48:27.896Z,96517.88
2022-08-03T12:51:27.328Z,96511.00
2022-08-03T12:54:30.494Z,96516.66
2022-08-03T12:57:42.081Z,96514.03
2022-08-03T13:00:40.268Z,96505.69
2022-08-03T13:03:49.653Z,96507.88
2022-08-03T13:07:02.897Z,96513.44
2022-08-03T13:10:03.699Z,96502.38
2022-08-03T13:13:04.730Z,96504.59
2022-08-03T13:16:01.636Z,96508.97
2022-08-03T13:18:58.498Z,96505.47
2022-08-03T13:22:04.181Z,96497.56
2022-08-03T13:25:03.929Z,96509.31
2022-08-03T13:28:04.929Z,96510.56
2022-08-03T13:31:03.630Z,96492.81
2022-08-03T13:34:00.574Z,96494.31
2022-08-03T13:37:09.072Z,96484.31
2022-08-03T13:40:08.533Z,96490.59
2022-08-03T13:43:08.983Z,96485.41
2022-08-03T13:46:05.848Z,96480.69
2022-08-03T13:49:02.838Z,96481.75
2022-08-03T13:51:59.809Z,96467.06
2022-08-03T13:54:56.763Z,96476.97
2022-08-03T13:58:02.724Z,96474.44
2022-08-03T14:01:03.710Z,96471.72
2022-08-03T14:04:00.681Z,96465.59
2022-08-03T14:06:57.647Z,96466.53
2022-08-03T14:09:54.535Z,96455.00
2022-08-03T14:12:51.565Z,96459.72
2022-08-03T14:15:50.356Z,96459.28
2022-08-03T14:18:48.257Z,96460.31
2022-08-03T14:21:45.347Z,96472.75
2022-08-03T14:24:56.183Z,96462.09
2022-08-03T14:27:53.098Z,96461.38
2022-08-03T14:30:54.218Z,96462.97
2022-08-03T14:33:51.091Z,96459.25
2022-08-03T14:36:47.938Z,96458.38
2022-08-03T14:40:02.369Z,96454.19
2022-08-03T14:42:59.326Z,96448.66
2022-08-03T14:45:56.403Z,96456.31
2022-08-03T14:50:32.448Z,96445.06
2022-08-03T14:52:10.383Z,96443.31
2022-08-03T14:55:07.771Z,96445.50
2022-08-03T14:58:19.464Z,96439.66
2022-08-03T15:02:05.546Z,96436.09
2022-08-03T15:04:34.730Z,96433.47
2022-08-03T15:07:31.733Z,96430.53
2022-08-03T15:10:40.175Z,96442.22
2022-08-03T15:13:40.570Z,96433.66
2022-08-03T15:16:38.601Z,96421.31
2022-08-03T15:20:02.842Z,96418.16
2022-08-03T15:22:52.409Z,96423.56
2022-08-03T15:26:27.970Z,96417.72
2022-08-03T15:29:08.055Z,96414.41
2022-08-03T15:32:09.195Z,96419.47
2022-08-03T15:35:06.715Z,96416.63
2022-08-03T15:38:08.766Z,96404.81
2022-08-03T15:41:06.270Z,96408.41
2022-08-03T15:44:10.371Z,96412.34
2022-08-03T15:47:09.893Z,96406.97
2022-08-03T15:50:09.890Z,96411.91
2022-08-03T15:53:06.969Z,96411.81
2022-08-03T15:56:10.013Z,96406.44
2022-08-03T15:59:12.561Z,96402.97
2022-08-03T16:02:10.529Z,96402.50
2022-08-03T16:05:08.144Z,96401.97
2022-08-03T16:08:07.096Z,96407.25
2022-08-03T16:11:07.325Z,96408.84
2022-08-03T16:14:13.022Z,96402.91
2022-08-03T16:17:22.273Z,96396.94
2022-08-03T16:20:34.181Z,96403.34
2022-08-03T16:23:31.439Z,96403.94
2022-08-03T16:26:32.321Z,96400.88
2022-08-03T16:29:34.069Z,96409.19
2022-08-03T16:32:31.306Z,96400.00
2022-08-03T16:35:36.601Z,96391.16
2022-08-03T16:38:33.446Z,96398.22
2022-08-03T16:42:00.497Z,96394.63
2022-08-03T16:44:47.752Z,96392.56
2022-08-03T16:47:44.625Z,96396.06
2022-08-03T16:50:41.856Z,96399.59
2022-08-03T16:54:05.293Z,96396.09
2022-08-03T16:56:56.248Z,96399.97
2022-08-03T16:59:53.938Z,96404.22
2022-08-03T17:02:52.714Z,96395.06
2022-08-03T17:05:50.178Z,96396.84
2022-08-03T17:08:55.149Z,96403.91
2022-08-03T17:11:52.750Z,96400.72
2022-08-03T17:14:49.591Z,96404.78
2022-08-03T17:18:07.794Z,96412.38
2022-08-03T17:21:08.038Z,96405.66
2022-08-03T17:24:19.929Z,96415.88
2022-08-03T17:28:50.362Z,96414.28
2022-08-03T17:31:01.197Z,96414.41
2022-08-03T17:34:04.461Z,96417.91
2022-08-03T17:37:04.463Z,96422.38
2022-08-03T17:40:03.702Z,96416.94
2022-08-03T17:43:02.303Z,96426.78
2022-08-03T17:46:20.706Z,96426.84
2022-08-03T17:49:25.250Z,96437.91
2022-08-03T17:52:38.800Z,96440.94
2022-08-03T17:55:56.441Z,96440.53
2022-08-03T17:59:01.501Z,96439.13
2022-08-03T18:02:47.474Z,96443.53
2022-08-03T18:06:10.707Z,96437.97
2022-08-03T18:10:03.731Z,96446.22
2022-08-03T18:12:28.957Z,96443.69
2022-08-03T18:15:37.543Z,96450.13
2022-08-03T18:22:02.798Z,96449.22
2022-08-03T18:25:07.553Z,96450.56
2022-08-03T18:28:06.273Z,96450.03
2022-08-03T18:31:05.807Z,96459.66
2022-08-03T18:34:16.482Z,96454.47
2022-08-03T18:37:23.074Z,96449.94
2022-08-03T18:40:23.929Z,96457.34
2022-08-03T18:43:46.477Z,96455.31
2022-08-03T18:47:16.494Z,96453.19
2022-08-03T18:50:50.258Z,96460.81
2022-08-03T18:54:46.052Z,96463.53
2022-08-03T18:57:55.713Z,96471.03
2022-08-03T19:02:00.069Z,96472.59
2022-08-03T19:04:48.162Z,96480.69
2022-08-03T19:12:13.190Z,96484.84
2022-08-03T19:15:36.328Z,96491.09
2022-08-03T19:18:36.120Z,96489.94
2022-08-03T19:21:35.230Z,96494.25
2022-08-03T19:24:37.113Z,96502.81
2022-08-03T19:27:35.324Z,96503.22
2022-08-03T19:30:38.640Z,96505.13
2022-08-03T19:33:55.938Z,96507.78
2022-08-03T19:36:54.613Z,96510.25
2022-08-03T19:39:56.380Z,96515.25
2022-08-03T19:43:00.023Z,96505.56
2022-08-03T19:46:06.154Z,96511.00
2022-08-03T19:49:15.197Z,96513.72
2022-08-03T19:52:20.830Z,96514.75
2022-08-03T19:55:21.831Z,96511.56
2022-08-03T19:58:24.530Z,96512.84
2022-08-03T20:01:26.646Z,96515.16
2022-08-03T20:04:25.446Z,96518.53
2022-08-03T20:07:23.644Z,96516.25
2022-08-03T20:10:21.376Z,96509.69
2022-08-03T20:13:19.353Z,96515.84
2022-08-03T20:16:16.442Z,96516.28
2022-08-03T20:19:14.892Z,96506.47
2022-08-03T20:22:14.386Z,96519.63
2022-08-03T20:28:51.176Z,96514.41
2022-08-03T20:31:48.154Z,96510.00
2022-08-03T20:34:45.312Z,96511.50
2022-08-03T20:37:46.294Z,96512.97
2022-08-03T20:40:43.153Z,96519.31
2022-08-03T20:43:41.680Z,96514.09
2022-08-03T20:46:56.357Z,96517.69
2022-08-03T20:49:55.710Z,96513.44
2022-08-03T20:52:55.367Z,96513.25
2022-08-03T20:56:01.694Z,96513.97
2022-08-03T20:59:05.419Z,96515.88
2022-08-03T21:02:02.315Z,96513.31
2022-08-03T21:05:03.702Z,96513.47
2022-08-03T21:08:10.759Z,96518.91
2022-08-03T21:11:16.220Z,96511.75
2022-08-03T21:12:57.499Z,96454.72
2022-08-03T21:13:09.434Z,96483.19
2022-08-03T21:13:14.083Z,96508.94
2022-08-03T21:14:25.935Z,96514.13
2022-08-03T21:17:40.102Z,96511.34
2022-08-03T21:20:41.772Z,96505.19
2022-08-03T21:23:48.754Z,96511.34
2022-08-03T21:26:49.328Z,96508.47
2022-08-03T21:29:53.036Z,96504.50
2022-08-03T21:32:53.805Z,96510.88
2022-08-03T21:35:53.546Z,96508.06
2022-08-03T21:38:56.857Z,96508.41
2022-08-03T21:41:54.248Z,96507.44
2022-08-03T21:44:54.399Z,96508.91
2022-08-03T21:47:51.478Z,96516.75
2022-08-03T21:50:51.083Z,96507.06
2022-08-03T21:54:02.322Z,96513.69
2022-08-03T21:57:08.125Z,96510.09
2022-08-03T22:00:20.511Z,96513.88
2022-08-03T22:03:18.827Z,96517.84
2022-08-03T22:06:19.622Z,96507.38
2022-08-03T22:09:17.256Z,96514.06
2022-08-03T22:12:14.228Z,96512.53
2022-08-03T22:15:13.768Z,96514.63
2022-08-03T22:18:11.129Z,96506.22
2022-08-03T22:21:11.666Z,96512.63
2022-08-03T22:24:08.543Z,96513.88
2022-08-03T22:27:24.083Z,96510.69
2022-08-03T22:30:21.188Z,96515.69
2022-08-03T22:33:20.045Z,96526.72
2022-08-03T22:36:20.853Z,96523.00
2022-08-03T22:39:22.807Z,96516.09
2022-08-03T22:42:25.560Z,96524.91
2022-08-03T22:45:45.782Z,96519.47
2022-08-03T22:48:41.156Z,96520.84
2022-08-03T22:51:40.680Z,96513.28
2022-08-03T22:54:38.502Z,96521.00
2022-08-03T22:57:36.249Z,96518.72
2022-08-03T23:00:33.206Z,96518.56
2022-08-03T23:03:58.658Z,96520.78
2022-08-03T23:06:57.915Z,96521.16
2022-08-03T23:09:57.787Z,96524.78
2022-08-03T23:12:55.600Z,96521.03
2022-08-03T23:15:57.886Z,96519.72
2022-08-03T23:18:55.175Z,96522.53
2022-08-03T23:22:02.795Z,96529.75
2022-08-03T23:25:04.861Z,96525.09
2022-08-03T23:28:04.971Z,96517.81
2022-08-03T23:31:04.209Z,96527.28
2022-08-03T23:34:19.461Z,96525.78
2022-08-03T23:37:18.132Z,96525.81
2022-08-03T23:40:16.002Z,96531.41
2022-08-03T23:43:18.896Z,96529.47
2022-08-03T23:46:32.481Z,96524.91
2022-08-03T23:49:29.447Z,96533.34
2022-08-03T23:52:34.973Z,96527.47
2022-08-03T23:56:12.553Z,96525.13
2022-08-03T23:59:32.140Z,96530.75
